Time;durP1;ratioP1;P1;durP2;ratioP2;P2;SDS_P1;SDS_P2;PMS_P1;PMS_P2;Temp;Humidity;BMP_temperature;BMP_pressure;BME280_temperature;BME280_humidity;BME280_pressure;Samples;Min_cycle;Max_cycle;Signal;HPM_P1;HPM_P2
2022/11/24 00:00:52;;;;;;;7.47;1.88;;;4.60;99.90;;;3.77;100.00;96535.41;5032072;28;20734;-53
2022/11/24 00:03:18;;;;;;;8.13;1.67;;;4.50;99.90;;;3.77;100.00;96530.19;5031003;28;20033;-54
2022/11/24 00:05:44;;;;;;;5.93;1.70;;;4.50;99.90;;;3.77;100.00;96533.66;5033878;28;20045;-50
2022/11/24 00:08:10;;;;;;;10.07;1.58;;;4.50;99.90;;;3.76;100.00;96539.75;5029706;28;20610;-51
2022/11/24 00:10:36;;;;;;;15.23;2.05;;;4.50;99.90;;;3.79;100.00;96537.06;5028849;28;20060;-53
2022/11/24 00:13:02;;;;;;;11.80;2.13;;;4.60;99.90;;;3.78;100.00;96534.50;5034285;28;20025;-52
2022/11/24 00:15:28;;;;;;;7.38;1.65;;;4.60;99.90;;;3.82;100.00;96536.13;5029520;28;20080;-51
2022/11/24 00:17:53;;;;;;;6.72;1.70;;;4.60;99.90;;;3.85;100.00;96536.06;5030403;28;20045;-52
2022/11/24 00:20:19;;;;;;;5.70;1.58;;;4.60;99.90;;;3.97;100.00;96533.16;5021378;28;20500;-53
2022/11/24 00:22:45;;;;;;;11.57;2.17;;;4.80;99.90;;;4.10;100.00;96540.69;5025785;28;20119;-53
2022/11/24 00:25:10;;;;;;;7.20;1.77;;;4.80;99.90;;;4.10;100.00;96544.13;5025764;28;20083;-50
2022/11/24 00:27:36;;;;;;;10.30;1.92;;;4.90;99.90;;;4.09;100.00;96542.44;5030174;28;20052;-50
2022/11/24 00:30:02;;;;;;;8.40;1.35;;;4.90;99.90;;;4.19;100.00;96550.88;5017162;28;20124;-54
2022/11/24 00:32:28;;;;;;;7.50;1.80;;;4.90;99.90;;;4.26;100.00;96542.00;5018782;28;20884;-50
2022/11/24 00:34:54;;;;;;;6.50;1.52;;;5.00;99.90;;;4.44;100.00;96545.03;5025791;28;20029;-51
2022/11/24 00:37:20;;;;;;;9.38;1.85;;;5.10;99.90;;;4.49;100.00;96541.41;5042315;28;20509;-51
2022/11/24 00:39:46;;;;;;;7.10;1.80;;;5.20;99.90;;;4.58;100.00;96550.75;5029643;28;20414;-52
2022/11/24 00:42:13;;;;;;;8.85;1.77;;;5.30;99.90;;;4.66;100.00;96564.44;5031787;28;20037;-53
2022/11/24 00:44:39;;;;;;;9.10;2.22;;;5.40;99.90;;;4.76;100.00;96559.84;5020934;28;20044;-52
2022/11/24 00:47:05;;;;;;;10.30;1.92;;;5.50;99.90;;;4.80;100.00;96564.09;5027016;28;20041;-52
2022/11/24 00:49:30;;;;;;;11.98;2.00;;;5.50;99.90;;;4.84;100.00;96562.25;5020709;28;20041;-51
2022/11/24 00:51:56;;;;;;;14.55;2.10;;;5.60;99.90;;;4.86;100.00;96566.50;5033042;28;20167;-54
2022/11/24 00:54:22;;;;;;;7.65;1.73;;;5.60;99.90;;;4.76;100.00;96552.88;5020479;28;20029;-52
2022/11/24 00:56:48;;;;;;;9.30;2.05;;;5.60;99.90;;;4.80;100.00;96571.06;5026076;28;20441;-51
2022/11/24 00:59:13;;;;;;;7.50;1.65;;;5.50;99.90;;;4.70;100.00;96580.91;5031295;28;20037;-54
2022/11/24 01:01:40;;;;;;;8.18;1.70;;;5.40;99.90;;;4.60;100.00;96577.69;5029938;28;20047;-51
2022/11/24 01:04:06;;;;;;;8.55;1.60;;;5.40;99.90;;;4.53;100.00;96586.56;5031366;28;20060;-51
2022/11/24 01:06:32;;;;;;;8.23;2.00;;;5.30;99.90;;;4.48;100.00;96593.66;5026449;28;20780;-52
2022/11/24 01:08:58;;;;;;;12.73;2.22;;;5.20;99.90;;;4.49;100.00;96595.41;5030063;28;20052;-52
2022/11/24 01:11:26;;;;;;;11.80;2.00;;;5.20;99.90;;;4.54;100.00;96590.88;5031813;28;20415;-52
2022/11/24 01:13:56;;;;;;;8.60;1.80;;;5.20;99.90;;;4.53;100.00;96592.66;5027458;28;20104;-50
2022/11/24 01:16:28;;;;;;;9.77;1.92;;;5.30;99.90;;;4.51;100.00;96598.81;5024482;28;20044;-49
2022/11/24 01:18:54;;;;;;;;;;;5.20;99.90;;;4.51;100.00;96598.81;5030674;28;20203;-52
2022/11/24 01:21:21;;;;;;;8.40;1.63;;;5.20;99.90;;;4.54;100.00;96612.66;5028316;28;20368;-50
2022/11/24 01:23:47;;;;;;;9.13;1.95;;;5.30;99.90;;;4.48;100.00;96602.34;5022964;28;20536;-51
2022/11/24 01:26:17;;;;;;;7.20;1.60;;;5.20;99.90;;;4.45;100.00;96612.00;5024242;28;20041;-52
2022/11/24 01:28:43;;;;;;;8.77;1.80;;;5.20;99.90;;;4.38;100.00;96614.78;5032866;28;20055;-51
2022/11/24 01:31:09;;;;;;;11.23;1.90;;;5.10;99.90;;;4.36;100.00;96611.38;5029910;28;20087;-51
2022/11/24 01:33:36;;;;;;;11.82;2.22;;;5.10;99.90;;;4.35;100.00;96624.44;5024643;28;20036;-51
2022/11/24 01:36:03;;;;;;;11.52;1.90;;;5.10;99.90;;;4.32;100.00;96621.91;5027635;28;20025;-50
2022/11/24 01:38:29;;;;;;;9.05;1.92;;;5.00;99.90;;;4.30;100.00;96611.50;5029795;28;20440;-51
2022/11/24 01:41:11;;;;;;;10.85;2.05;;;5.10;99.90;;;4.40;100.00;96619.97;5032908;28;20085;-52
2022/11/24 01:43:37;;;;;;;15.52;2.15;;;5.10;99.90;;;4.39;100.00;96606.03;5031654;28;20041;-53
2022/11/24 01:46:43;;;;;;;10.45;2.00;;;5.10;99.90;;;4.41;100.00;96616.44;5033092;28;20426;-52
2022/11/24 01:49:17;;;;;;;7.72;1.63;;;5.20;99.90;;;4.43;100.00;96624.25;5028750;28;20259;-53
2022/11/24 01:51:50;;;;;;;7.20;1.77;;;5.20;99.90;;;4.43;100.00;96617.25;5022959;28;20046;-54
2022/11/24 01:54:28;;;;;;;7.68;1.83;;;5.20;99.90;;;4.51;100.00;96628.38;5027924;28;20059;-52
2022/11/24 01:57:02;;;;;;;9.52;1.85;;;5.20;99.90;;;4.57;100.00;96625.59;5030747;28;20029;-51
2022/11/24 01:59:28;;;;;;;13.32;1.83;;;5.30;99.90;;;4.68;100.00;96627.94;5029645;28;20048;-51
2022/11/24 02:01:56;;;;;;;8.93;1.63;;;5.40;99.90;;;4.76;100.00;96630.38;5020829;28;20056;-51
2022/11/24 02:04:28;;;;;;;6.68;1.42;;;5.50;99.90;;;4.82;100.00;96631.97;5029635;28;20504;-52
2022/11/24 02:06:58;;;;;;;10.02;1.85;;;5.50;99.90;;;4.88;100.00;96639.63;5020876;28;20036;-52
2022/11/24 02:09:42;;;;;;;10.25;1.73;;;5.60;99.90;;;4.92;100.00;96636.91;5027268;28;20043;-51
2022/11/24 02:12:08;;;;;;;9.57;1.85;;;5.70;99.90;;;5.03;100.00;96638.38;5024968;28;20450;-51
2022/11/24 02:14:35;;;;;;;8.38;1.50;;;5.70;99.90;;;5.07;100.00;96646.06;5018890;28;20277;-52
2022/11/24 02:17:01;;;;;;;10.02;1.63;;;5.80;99.90;;;5.08;100.00;96632.13;5022547;28;20116;-53
2022/11/24 02:19:38;;;;;;;11.52;1.75;;;5.80;99.90;;;5.15;100.00;96644.13;5026368;28;20041;-51
2022/11/24 02:22:18;;;;;;;13.50;1.65;;;5.80;99.90;;;5.13;100.00;96640.72;5025761;28;20201;-52
2022/11/24 02:24:51;;;;;;;9.40;1.80;;;5.80;99.90;;;5.05;100.00;96645.28;5025426;28;20029;-50
2022/11/24 02:27:18;;;;;;;7.15;1.58;;;5.80;99.90;;;4.95;100.00;96649.91;5022743;28;20036;-51
2022/11/24 02:29:44;;;;;;;7.93;1.20;;;5.70;99.90;;;4.90;100.00;96650.88;5025939;28;20029;-50
2022/11/24 02:32:10;;;;;;;4.82;1.10;;;5.60;99.90;;;4.84;100.00;96646.69;5027461;28;20036;-50
2022/11/24 02:34:36;;;;;;;7.57;1.60;;;5.60;99.90;;;4.90;100.00;96650.88;5025650;28;20056;-53
2022/11/24 02:37:02;;;;;;;8.32;2.00;;;5.60;99.90;;;4.88;100.00;96655.31;5044358;28;20570;-52
2022/11/24 02:39:28;;;;;;;4.82;1.27;;;5.60;99.90;;;4.87;100.00;96656.22;5030629;28;20487;-51
2022/11/24 02:42:03;;;;;;;11.05;1.92;;;5.60;99.90;;;4.81;100.00;96648.53;5042258;28;20047;-53
2022/11/24 02:44:35;;;;;;;5.10;1.20;;;5.50;99.90;;;4.73;100.00;96643.50;5022287;28;20029;-53
2022/11/24 02:47:08;;;;;;;10.80;1.75;;;5.50;99.90;;;4.63;100.00;96650.75;5023073;28;20029;-53
2022/11/24 02:49:35;;;;;;;3.85;1.10;;;5.40;99.90;;;4.53;100.00;96650.09;5024601;28;20107;-53
2022/11/24 02:52:01;;;;;;;5.78;1.08;;;5.30;99.90;;;4.46;100.00;96652.91;5023095;28;20036;-52
2022/11/24 02:54:27;;;;;;;4.57;1.10;;;5.20;99.90;;;4.35;100.00;96643.56;5029526;28;21000;-52
2022/11/24 02:56:54;;;;;;;11.00;1.27;;;5.10;99.90;;;4.26;100.00;96654.25;5030695;28;20033;-54
2022/11/24 02:59:20;;;;;;;6.32;1.38;;;5.00;99.90;;;4.18;100.00;96659.66;5016098;28;20175;-53
2022/11/24 03:01:45;;;;;;;5.70;1.48;;;5.00;99.90;;;4.14;100.00;96657.13;5030104;28;20059;-54
2022/11/24 03:04:11;;;;;;;5.32;1.20;;;4.90;99.90;;;4.08;100.00;96662.50;5030062;28;20166;-54
2022/11/24 03:06:37;;;;;;;7.22;1.42;;;4.80;99.90;;;4.03;100.00;96659.13;5031573;28;20080;-52
2022/11/24 03:09:03;;;;;;;6.43;1.33;;;4.80;99.90;;;3.99;100.00;96664.41;5037375;28;20500;-50
2022/11/24 03:11:29;;;;;;;6.85;1.13;;;4.70;99.90;;;3.97;100.00;96670.56;5039016;28;20109;-54
2022/11/24 03:13:55;;;;;;;4.72;1.23;;;4.70;99.90;;;3.95;100.00;96668.00;5029900;28;20495;-50
2022/11/24 03:16:21;;;;;;;3.88;1.10;;;4.70;99.90;;;3.90;100.00;96658.56;5030968;28;20542;-52
2022/11/24 03:18:49;;;;;;;7.32;1.10;;;4.60;99.90;;;3.82;100.00;96663.94;5032566;28;20040;-53
2022/11/24 03:21:15;;;;;;;3.25;1.08;;;4.60;99.90;;;3.79;100.00;96664.88;5031541;28;20111;-51
2022/11/24 03:23:41;;;;;;;3.45;0.90;;;4.60;99.90;;;3.74;100.00;96676.28;5031318;28;20492;-49
2022/11/24 03:26:14;;;;;;;5.50;1.17;;;4.50;99.90;;;3.69;100.00;96679.00;5030942;28;20462;-54
2022/11/24 03:28:40;;;;;;;6.28;1.52;;;4.50;99.90;;;3.68;100.00;96677.28;5029900;28;20037;-50
2022/11/24 03:31:07;;;;;;;3.03;0.93;;;4.40;99.90;;;3.51;100.00;96659.38;5023290;28;20033;-50
2022/11/24 03:33:34;;;;;;;3.22;0.98;;;4.40;99.90;;;3.58;100.00;96670.53;5029795;28;20159;-49
2022/11/24 03:35:59;;;;;;;6.10;1.38;;;4.40;99.90;;;3.56;100.00;96672.31;5037614;22;20950;-40
2022/11/24 03:38:25;;;;;;;4.40;1.10;;;4.30;99.90;;;3.54;100.00;96685.38;5026253;28;20033;-40
2022/11/24 03:40:51;;;;;;;6.75;1.20;;;4.30;99.90;;;3.49;100.00;96686.38;5025704;28;20053;-41
2022/11/24 03:43:17;;;;;;;5.00;1.08;;;4.30;99.90;;;3.45;100.00;96677.75;5024373;28;20482;-41
2022/11/24 03:45:47;;;;;;;6.63;1.20;;;4.20;99.90;;;3.49;100.00;96689.00;5020094;28;20044;-40
2022/11/24 03:48:14;;;;;;;3.75;0.95;;;4.30;99.90;;;3.50;100.00;96694.16;5021463;28;20033;-40
2022/11/24 03:50:40;;;;;;;3.95;1.02;;;4.30;99.90;;;3.50;100.00;96688.06;5018133;28;20162;-41
2022/11/24 03:53:06;;;;;;;5.85;1.27;;;4.30;99.90;;;3.46;100.00;96695.09;5031237;28;20124;-40
2022/11/24 03:55:32;;;;;;;6.68;1.15;;;4.20;99.90;;;3.47;100.00;96685.56;5026509;28;20029;-41
2022/11/24 03:57:57;;;;;;;2.83;1.05;;;4.30;99.90;;;3.48;100.00;96690.72;5034423;28;20128;-40
2022/11/24 04:00:25;;;;;;;6.47;1.48;;;4.20;99.90;;;3.47;100.00;96696.84;5026285;28;20029;-40
2022/11/24 04:02:51;;;;;;;11.48;1.55;;;4.30;99.90;;;3.47;100.00;96702.03;5032759;28;20045;-41
2022/11/24 04:05:16;;;;;;;5.60;0.95;;;4.30;99.90;;;3.46;100.00;96700.31;5029513;28;20079;-41
2022/11/24 04:07:42;;;;;;;8.23;1.27;;;4.20;99.90;;;3.44;100.00;96704.72;5022317;28;20287;-40
2022/11/24 04:10:08;;;;;;;2.80;0.90;;;4.20;99.90;;;3.44;100.00;96699.50;5033345;28;20029;-40
2022/11/24 04:12:43;;;;;;;4.32;1.10;;;4.20;99.90;;;3.30;100.00;96693.69;5034978;28;20060;-40
2022/11/24 04:15:10;;;;;;;3.15;1.00;;;4.20;99.90;;;3.46;100.00;96710.75;5029609;28;20250;-40
2022/11/24 04:17:36;;;;;;;4.50;1.02;;;4.20;99.90;;;3.46;100.00;96712.50;5025906;28;20060;-40
2022/11/24 04:20:02;;;;;;;6.30;1.67;;;4.20;99.90;;;3.43;100.00;96705.63;5027204;28;20104;-41
2022/11/24 04:22:27;;;;;;;7.00;1.20;;;4.20;99.90;;;3.41;100.00;96715.19;5033056;28;20036;-41
2022/11/24 04:24:53;;;;;;;3.50;1.10;;;4.20;99.90;;;3.33;100.00;96709.28;5026883;28;20041;-41
2022/11/24 04:27:19;;;;;;;4.05;1.02;;;4.20;99.90;;;3.38;100.00;96723.09;5031134;28;20079;-40
2022/11/24 04:29:44;;;;;;;2.78;1.30;;;4.10;99.90;;;3.38;100.00;96730.91;5026554;28;20037;-41
2022/11/24 04:32:10;;;;;;;3.55;1.00;;;4.10;99.90;;;3.37;100.00;96727.41;5026929;28;20711;-41
2022/11/24 04:34:36;;;;;;;6.05;1.30;;;4.20;99.90;;;3.43;100.00;96737.75;5028099;28;20040;-40
2022/11/24 04:37:02;;;;;;;7.43;1.38;;;4.20;99.90;;;3.41;100.00;96726.50;5028740;28;20486;-42
2022/11/24 04:39:28;;;;;;;5.88;1.30;;;4.20;99.90;;;3.48;100.00;96732.41;5014545;28;20051;-41
2022/11/24 04:41:54;;;;;;;3.78;0.98;;;4.20;99.90;;;3.49;100.00;96731.53;5027429;28;20493;-40
2022/11/24 04:44:20;;;;;;;4.97;1.38;;;4.30;99.90;;;3.48;100.00;96732.41;5031246;28;20028;-41
2022/11/24 04:46:45;;;;;;;6.97;1.30;;;4.30;99.90;;;3.49;100.00;96731.53;5022868;28;20032;-42
2022/11/24 04:49:11;;;;;;;4.50;1.50;;;4.30;99.90;;;3.49;100.00;96735.91;5024460;28;20025;-41
2022/11/24 04:51:38;;;;;;;8.18;1.50;;;4.30;99.90;;;3.51;100.00;96736.72;5029284;28;20553;-41
2022/11/24 04:54:05;;;;;;;6.75;1.23;;;4.30;99.90;;;3.53;100.00;96727.13;5032549;28;20036;-41
2022/11/24 04:56:32;;;;;;;4.25;1.30;;;4.30;99.90;;;3.50;100.00;96720.25;5020104;28;20390;-42
2022/11/24 04:58:58;;;;;;;4.85;1.35;;;4.30;99.90;;;3.48;100.00;96727.22;5034238;28;20044;-41
2022/11/24 05:01:24;;;;;;;15.93;1.88;;;4.20;99.90;;;3.32;100.00;96700.59;5029109;28;20048;-41
2022/11/24 05:03:55;;;;;;;8.18;1.70;;;4.20;99.90;;;3.46;100.00;96726.38;5026640;28;20520;-41
2022/11/24 05:06:22;;;;;;;4.05;1.38;;;4.20;99.90;;;3.46;100.00;96733.34;5030044;28;20069;-41
2022/11/24 05:08:50;;;;;;;6.50;2.08;;;4.20;99.90;;;3.44;100.00;96731.63;5027407;28;20038;-42
2022/11/24 05:11:16;;;;;;;6.75;1.80;;;4.20;99.90;;;3.42;100.00;96736.00;5030704;28;20070;-41
2022/11/24 05:13:42;;;;;;;5.82;1.60;;;4.20;99.90;;;3.36;100.00;96740.50;5013839;28;20076;-41
2022/11/24 05:16:08;;;;;;;7.97;1.70;;;4.20;99.90;;;3.40;100.00;96743.00;5026237;28;20521;-42
2022/11/24 05:18:33;;;;;;;7.85;1.42;;;4.20;99.90;;;3.43;100.00;96736.91;5031985;28;20024;-41
2022/11/24 05:21:00;;;;;;;6.60;1.38;;;4.20;99.90;;;3.43;100.00;96732.53;5026193;28;20059;-41
2022/11/24 05:23:25;;;;;;;3.42;1.25;;;4.20;99.90;;;3.47;100.00;96746.38;5025989;28;20032;-41
2022/11/24 05:25:51;;;;;;;5.78;1.00;;;4.20;99.90;;;3.44;100.00;96751.63;5024923;28;20550;-41
2022/11/24 05:28:18;;;;;;;8.77;1.50;;;4.20;99.90;;;3.38;100.00;96755.22;5030926;28;20559;-41
2022/11/24 05:30:44;;;;;;;4.40;1.27;;;4.20;99.90;;;3.36;100.00;96757.00;5023700;28;20165;-42
2022/11/24 05:33:18;;;;;;;8.48;1.80;;;4.20;99.90;;;3.35;100.00;96759.63;5028464;28;20029;-41
2022/11/24 05:35:45;;;;;;;9.73;2.05;;;4.10;99.90;;;3.36;100.00;96762.22;5028026;28;20277;-41
2022/11/24 05:38:10;;;;;;;7.40;1.60;;;4.10;99.90;;;3.37;100.00;96761.31;5028837;28;20037;-41
2022/11/24 05:40:37;;;;;;;9.88;1.92;;;4.20;99.90;;;3.24;100.00;96726.78;5027034;28;20029;-41
2022/11/24 05:43:03;;;;;;;7.43;2.00;;;4.20;99.90;;;3.53;100.00;96761.88;5028569;28;20036;-41
2022/11/24 05:45:28;;;;;;;11.30;2.00;;;4.30;99.90;;;3.64;100.00;96756.44;5026971;28;20037;-41
2022/11/24 05:47:54;;;;;;;6.35;1.70;;;4.40;99.90;;;3.75;100.00;96761.44;5027072;28;20056;-41
2022/11/24 05:50:21;;;;;;;7.10;1.80;;;4.50;99.90;;;3.83;100.00;96762.16;5021621;28;20033;-40
2022/11/24 05:52:48;;;;;;;7.30;2.03;;;4.60;99.90;;;3.89;100.00;96751.59;5023577;28;20033;-41
2022/11/24 05:55:14;;;;;;;9.25;1.63;;;4.60;99.90;;;3.97;100.00;96751.47;5032842;28;20114;-40
2022/11/24 05:57:41;;;;;;;9.80;1.85;;;4.70;99.90;;;4.05;100.00;96753.88;5031060;28;20037;-40
2022/11/24 06:00:09;;;;;;;12.90;1.83;;;4.80;99.90;;;4.13;100.00;96754.59;5022954;28;20045;-41
2022/11/24 06:02:35;;;;;;;8.07;1.90;;;4.90;99.90;;;4.23;100.00;96752.63;5025495;28;20037;-40
2022/11/24 06:05:00;;;;;;;13.00;2.10;;;4.90;99.90;;;4.32;100.00;96752.44;5029014;28;20037;-40
2022/11/24 06:07:26;;;;;;;10.85;2.38;;;5.00;99.90;;;4.42;100.00;96753.09;5025887;28;20045;-40
2022/11/24 06:09:52;;;;;;;16.40;2.25;;;5.10;99.90;;;4.55;100.00;96752.75;5028413;28;20424;-40
2022/11/24 06:12:19;;;;;;;11.77;1.88;;;5.20;99.90;;;4.56;100.00;96743.19;5025119;28;20355;-40
2022/11/24 06:14:44;;;;;;;11.98;1.88;;;5.30;99.90;;;4.67;100.00;96756.00;5026310;28;21126;-41
2022/11/24 06:17:11;;;;;;;11.90;1.70;;;5.40;99.90;;;4.65;100.00;96742.97;5022167;28;20086;-41
2022/11/24 06:19:36;;;;;;;21.35;3.05;;;5.40;99.90;;;4.72;100.00;96760.19;5006659;28;20033;-40
2022/11/24 06:22:03;;;;;;;16.25;2.33;;;5.50;99.90;;;4.81;100.00;96753.03;5016322;28;20098;-40
2022/11/24 06:24:28;;;;;;;12.40;2.10;;;5.50;99.90;;;4.87;100.00;96761.56;5030436;28;20944;-41
2022/11/24 06:26:54;;;;;;;15.52;1.98;;;5.50;99.90;;;4.91;100.00;96767.59;5026249;28;20079;-41
2022/11/24 06:29:20;;;;;;;9.80;2.13;;;5.60;99.90;;;4.95;100.00;96772.72;5020693;28;20489;-40
2022/11/24 06:31:45;;;;;;;10.52;2.15;;;5.70;99.90;;;4.84;100.00;96747.72;5019194;28;20037;-41
2022/11/24 06:34:12;;;;;;;10.43;1.80;;;5.70;99.90;;;5.00;100.00;96767.34;5024437;28;20077;-40
2022/11/24 06:36:38;;;;;;;10.05;2.22;;;5.70;99.90;;;4.99;100.00;96768.28;5022077;28;20118;-40
2022/11/24 06:39:05;;;;;;;10.65;2.50;;;5.70;99.90;;;5.01;100.00;96776.03;5028558;28;20428;-40
2022/11/24 06:41:31;;;;;;;8.35;2.38;;;5.70;99.90;;;5.03;100.00;96788.19;5025559;28;20040;-41
2022/11/24 06:43:56;;;;;;;9.48;2.50;;;5.70;99.90;;;5.06;100.00;96795.97;5021682;28;20059;-42
2022/11/24 06:46:22;;;;;;;8.20;1.98;;;5.70;99.90;;;5.08;100.00;96794.16;5030198;28;20028;-40
2022/11/24 06:48:51;;;;;;;10.48;2.25;;;5.80;99.90;;;5.11;100.00;96798.44;5023386;28;20449;-40
2022/11/24 06:51:17;;;;;;;4.25;1.48;;;5.80;99.90;;;5.14;100.00;96803.59;5023158;28;20132;-40
2022/11/24 06:53:44;;;;;;;7.90;1.95;;;5.90;99.90;;;5.18;100.00;96804.38;5026287;28;20066;-40
2022/11/24 06:56:14;;;;;;;7.65;1.73;;;5.90;99.90;;;5.21;100.00;96817.41;5025274;28;20516;-40
2022/11/24 06:58:46;;;;;;;7.35;1.88;;;5.90;99.90;;;5.25;100.00;96817.25;5029614;28;20178;-41
2022/11/24 07:01:25;;;;;;;7.75;1.92;;;5.90;99.90;;;5.27;100.00;96825.06;5030037;28;20025;-41
2022/11/24 07:03:52;;;;;;;10.20;2.40;;;6.00;99.90;;;5.13;100.00;96797.53;5028794;28;20041;-40
2022/11/24 07:06:20;;;;;;;13.73;2.83;;;6.00;99.90;;;5.33;100.00;96832.78;5031292;28;20033;-40
2022/11/24 07:08:46;;;;;;;9.23;2.47;;;6.00;99.90;;;5.33;100.00;96835.41;5027914;28;20055;-41
2022/11/24 07:11:20;;;;;;;11.52;1.83;;;6.00;99.90;;;5.39;100.00;96835.22;5034023;28;20428;-40
2022/11/24 07:13:46;;;;;;;7.30;1.90;;;6.10;99.90;;;5.42;100.00;96843.00;5031349;28;20376;-40
2022/11/24 07:16:22;;;;;;;11.35;2.10;;;6.10;99.90;;;5.34;100.00;96824.00;5024971;28;20029;-40
2022/11/24 07:18:50;;;;;;;7.85;1.75;;;6.20;99.90;;;5.52;100.00;96857.53;5025291;28;20048;-40
2022/11/24 07:21:16;;;;;;;10.52;1.90;;;6.20;99.90;;;5.57;100.00;96856.59;5027270;28;20033;-41
2022/11/24 07:23:42;;;;;;;9.05;1.52;;;6.30;99.90;;;5.61;100.00;96866.91;5029666;28;20274;-40
2022/11/24 07:26:09;;;;;;;8.70;1.90;;;6.30;99.90;;;5.64;100.00;96858.13;5029924;28;20043;-40
2022/11/24 07:28:36;;;;;;;8.00;1.70;;;6.40;99.90;;;5.72;100.00;96871.88;5028192;28;20051;-41
2022/11/24 07:31:10;;;;;;;13.30;2.42;;;6.40;99.90;;;5.79;100.00;96876.03;5029377;28;20112;-40
2022/11/24 07:33:36;;;;;;;10.57;1.88;;;6.50;99.90;;;5.85;100.00;96880.25;5025528;28;20060;-40
2022/11/24 07:36:05;;;;;;;10.40;2.03;;;6.50;99.90;;;5.88;100.00;96888.03;5028583;28;20036;-41
2022/11/24 07:38:31;;;;;;;10.63;1.92;;;6.60;99.90;;;5.95;100.00;96900.03;5028575;28;20032;-41
2022/11/24 07:41:01;;;;;;;7.20;2.50;;;6.60;99.90;;;5.97;100.00;96900.03;5026093;28;20536;-40
2022/11/24 07:43:30;;;;;;;12.10;2.45;;;6.70;99.90;;;6.03;100.00;96905.09;5029657;28;20044;-40
2022/11/24 07:45:55;;;;;;;8.95;1.77;;;6.70;99.90;;;6.04;100.00;96909.44;5023980;28;20044;-40
2022/11/24 07:48:21;;;;;;;11.80;2.28;;;6.70;99.90;;;6.06;100.00;96926.81;5033555;28;20057;-40
2022/11/24 07:50:47;;;;;;;9.90;1.88;;;6.80;99.90;;;6.03;100.00;96926.94;5029497;28;20456;-40
2022/11/24 07:53:14;;;;;;;9.02;1.90;;;6.80;99.90;;;6.03;100.00;96931.28;5036164;28;20043;-40
2022/11/24 07:55:39;;;;;;;10.07;2.00;;;6.70;99.90;;;6.02;100.00;96933.03;5032783;28;20044;-40
2022/11/24 07:58:05;;;;;;;9.50;1.63;;;6.70;99.90;;;6.04;100.00;96933.00;5033576;28;20104;-40
2022/11/24 08:00:31;;;;;;;8.10;1.65;;;6.70;99.90;;;6.00;100.00;96920.91;5033088;28;20025;-40
2022/11/24 08:02:56;;;;;;;4.18;1.40;;;6.80;99.90;;;6.04;100.00;96927.78;5016213;28;20836;-40
2022/11/24 08:05:22;;;;;;;8.13;1.42;;;6.70;99.90;;;6.05;100.00;96929.50;5033583;28;20032;-40
2022/11/24 08:07:48;;;;;;;7.57;1.42;;;6.80;99.90;;;6.01;100.00;96918.25;5028434;28;20473;-41
2022/11/24 08:10:14;;;;;;;5.20;1.20;;;6.80;99.90;;;6.05;100.00;96913.81;5025936;28;20240;-40
2022/11/24 08:12:40;;;;;;;2.45;1.00;;;6.80;99.90;;;6.09;100.00;96911.03;5031063;28;20029;-40
2022/11/24 08:15:07;;;;;;;4.35;1.10;;;6.80;99.90;;;6.15;100.00;96923.09;5024972;28;20044;-40
2022/11/24 08:17:33;;;;;;;5.60;1.40;;;6.80;99.90;;;6.17;100.00;96907.34;5034072;28;20033;-40
2022/11/24 08:19:58;;;;;;;4.88;0.90;;;6.90;99.90;;;6.21;100.00;96924.69;5031829;28;20039;-42
2022/11/24 08:22:24;;;;;;;6.13;1.30;;;6.90;99.90;;;6.19;100.00;96930.00;5031331;28;20040;-41
2022/11/24 08:24:50;;;;;;;6.90;1.13;;;6.90;99.90;;;6.21;100.00;96924.69;5032915;28;20119;-41
2022/11/24 08:27:17;;;;;;;5.90;1.38;;;7.00;99.90;;;6.23;100.00;96918.53;5035109;28;20492;-42
2022/11/24 08:29:43;;;;;;;4.43;1.27;;;7.00;99.90;;;6.29;100.00;96928.81;5030769;28;20127;-42
2022/11/24 08:32:11;;;;;;;8.55;1.15;;;7.00;99.90;;;6.34;100.00;96933.94;5032678;28;20549;-41
2022/11/24 08:34:37;;;;;;;6.53;0.82;;;7.10;99.90;;;6.40;100.00;96938.16;5030010;28;20495;-41
2022/11/24 08:37:05;;;;;;;3.88;1.00;;;7.10;99.90;;;6.44;100.00;96948.50;5029656;28;20033;-42
2022/11/24 08:39:32;;;;;;;5.05;1.00;;;7.10;99.90;;;6.40;100.00;96933.75;5030635;28;20094;-41
2022/11/24 08:41:58;;;;;;;3.90;0.90;;;7.10;99.90;;;6.45;100.00;96950.22;5031037;28;20834;-42
2022/11/24 08:44:24;;;;;;;2.45;0.98;;;7.10;99.90;;;6.37;100.00;96959.19;5031932;28;20440;-42
2022/11/24 08:46:52;;;;;;;2.65;0.80;;;7.10;99.90;;;6.37;100.00;96964.41;5031513;28;20064;-40
2022/11/24 08:49:18;;;;;;;4.88;0.80;;;7.10;99.90;;;6.34;100.00;96964.53;5034489;28;20045;-40
2022/11/24 08:51:45;;;;;;;2.85;0.80;;;7.10;99.90;;;6.34;100.00;96959.28;5025846;28;20033;-41
2022/11/24 08:54:14;;;;;;;2.80;0.80;;;7.00;99.90;;;6.29;100.00;96955.00;5029670;28;20029;-41
2022/11/24 08:56:40;;;;;;;1.38;0.45;;;7.10;99.90;;;6.30;100.00;96964.59;5025995;28;20028;-41
2022/11/24 08:59:06;;;;;;;1.60;0.60;;;7.00;99.90;;;6.33;100.00;96962.78;5029587;28;20075;-40
2022/11/24 09:01:31;;;;;;;2.17;0.70;;;7.00;99.90;;;6.28;100.00;96971.66;5028778;28;20540;-41
2022/11/24 09:03:57;;;;;;;4.63;0.88;;;7.00;99.90;;;6.34;100.00;96967.16;5029314;28;20239;-41
2022/11/24 09:06:29;;;;;;;2.80;0.60;;;7.00;99.90;;;6.34;100.00;96964.53;5031327;28;20503;-41
2022/11/24 09:08:54;;;;;;;3.03;0.70;;;7.00;99.90;;;6.30;100.00;96961.13;5031150;28;20051;-40
2022/11/24 09:11:21;;;;;;;1.42;0.32;;;7.10;99.90;;;6.43;100.00;96972.13;5008454;28;20645;-40
2022/11/24 09:13:46;;;;;;;2.53;0.77;;;7.10;99.90;;;6.56;100.00;96964.78;5024245;28;20075;-41
2022/11/24 09:16:20;;;;;;;1.40;0.45;;;7.30;99.90;;;6.64;100.00;96965.41;5033654;28;20112;-41
2022/11/24 09:18:47;;;;;;;1.80;0.40;;;7.40;99.90;;;6.74;100.00;96966.88;5031306;28;20026;-40
2022/11/24 09:21:18;;;;;;;1.45;0.50;;;7.50;99.90;;;6.87;100.00;96972.63;5030111;28;20124;-40
2022/11/24 09:23:48;;;;;;;2.20;0.40;;;7.60;99.90;;;7.02;100.00;96987.91;5022531;28;20029;-40
2022/11/24 09:26:23;;;;;;;2.03;0.50;;;7.70;99.90;;;7.09;100.00;97001.72;5028892;28;20068;-41
2022/11/24 09:28:53;;;;;;;1.42;0.40;;;7.80;99.90;;;7.08;100.00;96997.38;5028138;28;20108;-40
2022/11/24 09:31:19;;;;;;;4.25;0.47;;;7.80;99.90;;;7.19;100.00;96997.88;5028428;28;20047;-41
2022/11/24 09:33:45;;;;;;;4.25;0.60;;;7.90;99.90;;;7.24;100.00;97003.88;5028720;28;20037;-40
2022/11/24 09:36:13;;;;;;;2.20;0.70;;;7.90;99.90;;;7.15;100.00;97009.38;5059599;22;20036;-57
2022/11/24 09:38:39;;;;;;;1.20;0.60;;;7.90;99.90;;;7.11;100.00;97005.16;5066398;28;20070;-57
2022/11/24 09:41:39;;;;;;;1.17;0.40;;;7.90;99.90;;;7.13;100.00;97012.97;5067573;28;20032;-57
2022/11/24 09:44:46;;;;;;;2.53;1.23;;;7.80;99.90;;;7.09;100.00;97020.06;5065928;28;20043;-57
2022/11/24 09:47:27;;;;;;;1.48;0.60;;;7.80;99.90;;;6.97;100.00;97005.53;5063928;28;20071;-57
2022/11/24 09:50:04;;;;;;;0.90;0.30;;;7.80;99.90;;;7.06;100.00;97015.75;5069379;28;20221;-57
2022/11/24 09:53:10;;;;;;;1.50;0.50;;;7.80;99.90;;;7.14;100.00;97017.28;5069099;28;20051;-57
2022/11/24 09:55:54;;;;;;;0.38;0.38;;;7.80;99.90;;;7.17;100.00;97032.94;5054578;28;20079;-57
2022/11/24 09:58:59;;;;;;;4.32;0.63;;;7.90;99.90;;;7.22;100.00;97038.94;5067703;28;20063;-57
2022/11/24 10:01:36;;;;;;;1.02;0.52;;;7.90;99.90;;;7.25;100.00;97037.06;5066064;28;20051;-57
2022/11/24 10:04:13;;;;;;;2.08;0.50;;;8.00;99.90;;;7.26;100.00;97040.53;5055770;28;20038;-57
2022/11/24 10:07:09;;;;;;;0.85;0.45;;;8.00;99.90;;;7.29;100.00;97050.09;5065263;28;20452;-57
2022/11/24 10:10:08;;;;;;;1.10;0.40;;;8.00;99.90;;;7.36;100.00;97034.13;5037889;28;20052;-59
2022/11/24 10:13:27;;;;;;;1.25;0.50;;;8.10;99.90;;;7.56;100.00;97046.63;5049260;28;20123;-58
2022/11/24 10:16:41;;;;;;;0.20;0.20;;;8.30;99.90;;;7.81;100.00;97052.00;5060912;28;20045;-59
2022/11/24 10:19:45;;;;;;;0.70;0.38;;;8.50;99.90;;;8.08;100.00;97049.38;5066298;28;20059;-59
2022/11/24 10:22:14;;;;;;;1.85;0.70;;;8.80;99.90;;;8.14;100.00;97043.91;5063248;28;20048;-58
2022/11/24 10:25:03;;;;;;;2.05;0.40;;;8.90;99.90;;;8.16;100.00;97047.34;5065104;28;20531;-58
2022/11/24 10:27:59;;;;;;;0.30;0.30;;;8.90;99.90;;;8.11;100.00;97041.41;5048421;28;20036;-58
2022/11/24 10:30:25;;;;;;;2.30;0.40;;;8.90;99.90;;;8.12;100.00;97043.13;5044151;28;21069;-58
2022/11/24 10:32:57;;;;;;;1.65;0.30;;;8.80;99.90;;;8.13;100.00;97044.84;5063875;28;20058;-58